createdAt,value
2019-03-06T00:00:12.307Z,99321.63
2019-03-06T00:02:41.563Z,99315.57
2019-03-06T00:08:06.317Z,99320.21
2019-03-06T00:10:35.501Z,99319.98
2019-03-06T00:13:04.712Z,99328.90
2019-03-06T00:15:33.935Z,99327.36
2019-03-06T00:18:03.345Z,99325.05
2019-03-06T00:20:32.611Z,99325.34
2019-03-06T00:23:02.276Z,99320.88
2019-03-06T00:25:31.510Z,99320.95
2019-03-06T00:28:00.717Z,99320.17
2019-03-06T00:30:30.147Z,99317.77
2019-03-06T00:32:59.648Z,99314.61
2019-03-06T00:38:09.741Z,99318.13
2019-03-06T00:40:58.202Z,99311.36
2019-03-06T00:43:27.779Z,99303.23
2019-03-06T00:45:57.011Z,99298.92
2019-03-06T00:48:26.220Z,99293.53
2019-03-06T00:50:55.470Z,99295.08
2019-03-06T00:53:24.664Z,99296.12
2019-03-06T00:55:54.178Z,99293.50
2019-03-06T00:58:25.033Z,99288.41
2019-03-06T01:00:54.653Z,99291.75
2019-03-06T01:03:23.955Z,99287.22
2019-03-06T01:05:53.209Z,99283.49
2019-03-06T01:08:23.297Z,99285.17
2019-03-06T01:10:52.531Z,99283.23
2019-03-06T01:13:21.927Z,99277.80
2019-03-06T01:19:05.197Z,99277.57
2019-03-06T01:21:34.682Z,99275.41
2019-03-06T01:24:03.921Z,99280.77
2019-03-06T01:26:33.157Z,99275.11
2019-03-06T01:29:02.384Z,99270.03
2019-03-06T01:31:31.903Z,99266.58
2019-03-06T01:34:20.289Z,99267.95
2019-03-06T01:37:08.427Z,99262.03
2019-03-06T01:39:56.768Z,99252.53
2019-03-06T01:45:15.169Z,99247.64
2019-03-06T01:47:44.396Z,99252.03
2019-03-06T01:50:32.975Z,99252.53
2019-03-06T01:53:02.194Z,99252.77
2019-03-06T01:55:31.938Z,99241.16
2019-03-06T01:58:01.198Z,99231.69
2019-03-06T02:00:30.814Z,99235.15
2019-03-06T02:03:00.056Z,99241.63
2019-03-06T02:06:08.640Z,99244.59
2019-03-06T02:08:37.874Z,99232.74
2019-03-06T02:11:07.392Z,99233.01
2019-03-06T02:13:36.651Z,99227.94
2019-03-06T02:16:05.941Z,99226.88
2019-03-06T02:18:35.201Z,99222.80
2019-03-06T02:21:05.061Z,99221.75
2019-03-06T02:23:34.352Z,99226.27
2019-03-06T02:26:04.105Z,99221.92
2019-03-06T02:28:33.756Z,99232.42
2019-03-06T02:31:03.353Z,99225.44
2019-03-06T02:33:32.596Z,99229.25
2019-03-06T02:36:01.831Z,99226.77
2019-03-06T02:38:31.505Z,99217.67
2019-03-06T02:41:00.702Z,99217.38
2019-03-06T02:43:29.960Z,99201.56
2019-03-06T02:45:59.918Z,99205.53
2019-03-06T02:48:29.178Z,99191.99
2019-03-06T02:50:58.368Z,99191.20
2019-03-06T02:53:27.591Z,99190.38
2019-03-06T02:55:57.075Z,99186.89
2019-03-06T03:01:27.715Z,99171.66
2019-03-06T03:04:16.427Z,99162.98
2019-03-06T03:06:49.578Z,99157.52
2019-03-06T03:09:20.062Z,99160.91
2019-03-06T03:11:49.272Z,99161.08
2019-03-06T03:14:18.503Z,99160.47
2019-03-06T03:16:47.683Z,99163.66
2019-03-06T03:19:16.917Z,99152.22
2019-03-06T03:21:46.132Z,99157.02
2019-03-06T03:24:15.357Z,99149.98
2019-03-06T03:26:44.810Z,99147.23
2019-03-06T03:29:14.046Z,99148.24
2019-03-06T03:31:43.272Z,99149.03
2019-03-06T03:34:12.538Z,99139.60
2019-03-06T03:36:41.755Z,99145.32
2019-03-06T03:39:11.267Z,99142.95
2019-03-06T03:41:40.599Z,99148.94
2019-03-06T03:44:09.827Z,99157.91
2019-03-06T03:46:39.355Z,99151.17
2019-03-06T03:49:08.869Z,99141.51
2019-03-06T03:51:38.394Z,99130.17
2019-03-06T03:54:07.668Z,99125.80
2019-03-06T03:56:36.863Z,99128.53
2019-03-06T03:59:06.131Z,99120.16
2019-03-06T04:01:35.329Z,99123.34
2019-03-06T04:04:04.620Z,99114.14
2019-03-06T04:06:33.820Z,99114.61
2019-03-06T04:12:01.426Z,99104.75
2019-03-06T04:14:30.643Z,99102.84
2019-03-06T04:16:59.842Z,99101.43
2019-03-06T04:19:29.052Z,99101.09
2019-03-06T04:21:58.249Z,99098.97
2019-03-06T04:24:27.740Z,99088.91
2019-03-06T04:26:56.949Z,99095.84
2019-03-06T04:29:26.155Z,99094.23
2019-03-06T04:31:55.946Z,99099.54
2019-03-06T04:34:25.494Z,99095.95
2019-03-06T04:36:54.873Z,99115.84
2019-03-06T04:39:24.383Z,99132.55
2019-03-06T04:41:53.586Z,99133.10
2019-03-06T04:44:23.052Z,99116.13
2019-03-06T04:46:52.280Z,99108.89
2019-03-06T04:49:21.658Z,99095.98
2019-03-06T04:51:51.155Z,99089.48
2019-03-06T04:54:20.441Z,99082.16
2019-03-06T04:56:49.662Z,99083.12
2019-03-06T04:59:18.902Z,99077.15
2019-03-06T05:01:48.256Z,99067.47
2019-03-06T05:04:17.458Z,99062.31
2019-03-06T05:06:46.672Z,99060.14
2019-03-06T05:09:15.881Z,99048.67
2019-03-06T05:11:45.380Z,99052.41
2019-03-06T05:14:14.649Z,99052.03
2019-03-06T05:17:02.792Z,99045.83
2019-03-06T05:19:32.303Z,99042.84
2019-03-06T05:22:02.041Z,99044.97
2019-03-06T05:24:31.241Z,99037.20
2019-03-06T05:27:00.466Z,99028.09
2019-03-06T05:29:29.943Z,99024.69
2019-03-06T05:32:37.495Z,99024.77
2019-03-06T05:35:13.348Z,99024.16
2019-03-06T05:38:20.642Z,99022.33
2019-03-06T05:40:49.858Z,99014.25
2019-03-06T05:43:19.070Z,99010.32
2019-03-06T05:45:48.529Z,99005.53
2019-03-06T05:48:18.014Z,99006.94
2019-03-06T05:50:47.229Z,99011.31
2019-03-06T05:53:16.470Z,99000.58
2019-03-06T05:55:45.698Z,98994.17
2019-03-06T05:58:14.954Z,98988.58
2019-03-06T06:00:44.577Z,98990.54
2019-03-06T06:03:13.818Z,98985.48
2019-03-06T06:05:43.315Z,98987.41
2019-03-06T06:08:12.634Z,98984.50
2019-03-06T06:10:41.838Z,98981.52
2019-03-06T06:13:11.065Z,98974.00
2019-03-06T06:15:40.580Z,98968.29
2019-03-06T06:18:10.095Z,98958.86
2019-03-06T06:20:39.628Z,98958.34
2019-03-06T06:23:14.063Z,98952.69
2019-03-06T06:25:43.573Z,98936.02
2019-03-06T06:28:12.825Z,98938.19
2019-03-06T06:30:42.025Z,98940.38
2019-03-06T06:33:11.359Z,98938.20
2019-03-06T06:35:40.564Z,98932.30
2019-03-06T06:38:10.422Z,98922.89
2019-03-06T06:40:39.626Z,98915.36
2019-03-06T06:43:08.872Z,98917.00
2019-03-06T06:45:38.097Z,98916.18
2019-03-06T06:48:26.800Z,98906.25
2019-03-06T06:51:17.277Z,98889.81
2019-03-06T06:54:08.361Z,98881.55
2019-03-06T06:57:15.654Z,98885.62
2019-03-06T07:00:24.624Z,98866.27
2019-03-06T07:03:51.229Z,98843.68
2019-03-06T07:06:39.382Z,98846.71
2019-03-06T07:09:27.997Z,98837.58
2019-03-06T07:12:16.687Z,98830.03
2019-03-06T07:15:05.918Z,98810.63
2019-03-06T07:17:43.523Z,98821.73
2019-03-06T07:20:31.651Z,98822.55
2019-03-06T07:23:17.873Z,98815.02
2019-03-06T07:26:06.286Z,98804.27
2019-03-06T07:28:54.764Z,98795.36
2019-03-06T07:31:43.441Z,98793.75
2019-03-06T07:34:24.806Z,98797.80
2019-03-06T07:36:58.634Z,98786.48
2019-03-06T07:39:36.401Z,98788.34
2019-03-06T07:42:24.523Z,98773.53
2019-03-06T07:45:50.763Z,98759.16
2019-03-06T07:48:27.161Z,98753.22
2019-03-06T07:51:15.567Z,98741.83
2019-03-06T07:54:09.552Z,98735.62
2019-03-06T07:56:59.386Z,98737.23
2019-03-06T07:59:29.928Z,98738.77
2019-03-06T08:02:10.332Z,98739.04
2019-03-06T08:04:39.617Z,98745.50
2019-03-06T08:07:27.791Z,98741.97
2019-03-06T08:09:57.084Z,98743.30
2019-03-06T08:12:45.521Z,98738.10
2019-03-06T08:15:34.146Z,98734.19
2019-03-06T08:18:09.897Z,98730.38
2019-03-06T08:20:58.044Z,98731.68
2019-03-06T08:23:46.179Z,98719.47
2019-03-06T08:26:15.423Z,98732.97
2019-03-06T08:28:44.905Z,98726.69
2019-03-06T08:31:33.364Z,98731.83
2019-03-06T08:34:02.871Z,98745.50
2019-03-06T08:36:32.406Z,98754.66
2019-03-06T08:39:01.641Z,98758.93
2019-03-06T08:41:31.150Z,98774.16
2019-03-06T08:44:00.648Z,98783.36
2019-03-06T08:46:38.283Z,98781.98
2019-03-06T08:49:26.787Z,98776.11
2019-03-06T08:55:11.186Z,98765.84
2019-03-06T08:57:46.454Z,98753.23
2019-03-06T09:00:55.444Z,98737.53
2019-03-06T09:06:53.795Z,98743.75
2019-03-06T09:09:42.228Z,98742.08
2019-03-06T09:12:30.686Z,98735.03
2019-03-06T09:15:18.790Z,98721.73
2019-03-06T09:18:09.391Z,98720.86
2019-03-06T09:20:57.074Z,98716.01
2019-03-06T09:23:45.233Z,98720.89
2019-03-06T09:26:33.717Z,98723.51
2019-03-06T09:29:22.134Z,98712.02
2019-03-06T09:32:10.625Z,98716.48
2019-03-06T09:34:45.548Z,98719.29
2019-03-06T09:37:33.772Z,98710.67
2019-03-06T09:40:22.456Z,98705.55
2019-03-06T09:43:11.434Z,98701.28
2019-03-06T09:45:59.636Z,98702.33
2019-03-06T09:48:47.810Z,98721.95
2019-03-06T09:51:35.922Z,98731.64
2019-03-06T09:57:17.465Z,98731.77
2019-03-06T10:00:05.895Z,98717.56
2019-03-06T10:02:46.370Z,98714.53
2019-03-06T10:05:34.499Z,98695.80
2019-03-06T10:08:22.934Z,98684.59
2019-03-06T10:10:58.112Z,98665.99
2019-03-06T10:13:46.286Z,98671.58
2019-03-06T10:16:34.421Z,98669.67
2019-03-06T10:21:59.533Z,98662.97
2019-03-06T10:24:28.763Z,98656.17
2019-03-06T10:26:58.240Z,98656.78
2019-03-06T10:29:27.696Z,98656.30
2019-03-06T10:31:57.273Z,98646.63
2019-03-06T10:34:26.961Z,98642.80
2019-03-06T10:36:56.180Z,98634.80
2019-03-06T10:39:26.115Z,98627.42
2019-03-06T10:41:55.328Z,98635.58
2019-03-06T10:44:29.516Z,98624.20
2019-03-06T10:46:55.977Z,98626.14
2019-03-06T10:49:25.484Z,98627.61
2019-03-06T10:51:54.682Z,98637.27
2019-03-06T10:54:23.895Z,98631.06
2019-03-06T10:56:53.423Z,98634.92
2019-03-06T10:59:24.943Z,98627.30
2019-03-06T11:01:54.279Z,98621.17
2019-03-06T11:04:42.715Z,98614.68
2019-03-06T11:10:23.664Z,98638.02
2019-03-06T11:12:52.005Z,98642.91
2019-03-06T11:15:21.638Z,98635.34
2019-03-06T11:18:30.541Z,98638.36
2019-03-06T11:20:59.807Z,98619.82
2019-03-06T11:23:29.015Z,98610.31
2019-03-06T11:25:58.528Z,98603.97
2019-03-06T11:28:27.979Z,98606.98
2019-03-06T11:31:36.582Z,98599.80
2019-03-06T11:34:07.103Z,98587.59
2019-03-06T11:36:36.328Z,98572.88
2019-03-06T11:39:24.719Z,98570.71
2019-03-06T11:41:54.656Z,98569.59
2019-03-06T11:44:23.928Z,98564.82
2019-03-06T11:46:53.186Z,98566.77
2019-03-06T11:49:22.388Z,98562.77
2019-03-06T11:51:51.700Z,98563.19
2019-03-06T11:54:20.953Z,98570.16
2019-03-06T11:56:50.499Z,98553.98
2019-03-06T12:02:28.767Z,98538.93
2019-03-06T12:04:58.007Z,98531.02
2019-03-06T12:07:27.388Z,98530.34
2019-03-06T12:09:56.762Z,98524.59
2019-03-06T12:12:25.986Z,98527.28
2019-03-06T12:14:55.360Z,98532.80
2019-03-06T12:17:24.577Z,98529.23
2019-03-06T12:20:33.174Z,98512.62
2019-03-06T12:23:02.846Z,98497.73
2019-03-06T12:25:32.524Z,98474.09
2019-03-06T12:28:01.744Z,98480.92
2019-03-06T12:30:31.238Z,98475.42
2019-03-06T12:33:00.532Z,98481.09
2019-03-06T12:35:29.756Z,98469.28
2019-03-06T12:37:58.983Z,98475.66
2019-03-06T12:41:07.612Z,98483.42
2019-03-06T12:43:37.220Z,98476.52
2019-03-06T12:46:26.099Z,98488.39
2019-03-06T12:49:15.905Z,98486.64
2019-03-06T12:51:53.859Z,98481.69
2019-03-06T12:54:16.758Z,98493.79
2019-03-06T12:57:05.717Z,98483.23
2019-03-06T12:59:35.006Z,98483.30
2019-03-06T13:02:06.348Z,98479.33
2019-03-06T13:04:35.855Z,98478.73
2019-03-06T13:07:05.481Z,98475.91
2019-03-06T13:09:35.087Z,98472.55
2019-03-06T13:12:06.947Z,98473.16
2019-03-06T13:14:36.143Z,98478.16
2019-03-06T13:17:05.488Z,98488.11
2019-03-06T13:19:59.029Z,98487.44
2019-03-06T13:22:28.450Z,98476.69
2019-03-06T13:24:57.706Z,98470.99
2019-03-06T13:30:01.542Z,98464.53
2019-03-06T13:35:20.020Z,98447.90
2019-03-06T13:37:49.789Z,98452.91
2019-03-06T13:40:19.055Z,98435.92
2019-03-06T13:42:48.340Z,98446.10
2019-03-06T13:45:18.380Z,98443.64
2019-03-06T13:47:47.626Z,98441.09
2019-03-06T13:50:17.171Z,98432.23
2019-03-06T13:52:46.545Z,98427.55
2019-03-06T13:58:09.768Z,98451.86
2019-03-06T14:00:40.093Z,98440.78
2019-03-06T14:06:06.475Z,98444.48
2019-03-06T14:08:36.570Z,98438.98
2019-03-06T14:11:25.449Z,98441.15
2019-03-06T14:13:54.946Z,98441.91
2019-03-06T14:16:24.987Z,98434.34
2019-03-06T14:19:29.614Z,98445.00
2019-03-06T14:27:23.358Z,98438.61
2019-03-06T14:30:20.766Z,98428.91
2019-03-06T14:35:46.076Z,98427.93
2019-03-06T14:46:49.754Z,98429.34
2019-03-06T14:49:18.997Z,98418.41
2019-03-06T14:51:49.120Z,98418.10
2019-03-06T14:54:18.511Z,98411.48
2019-03-06T14:56:47.832Z,98413.78
2019-03-06T14:59:17.655Z,98407.72
2019-03-06T15:01:46.869Z,98412.69
2019-03-06T15:04:16.416Z,98407.85
2019-03-06T15:06:45.976Z,98405.16
2019-03-06T15:09:58.293Z,98405.13
2019-03-06T15:12:27.676Z,98395.38
2019-03-06T15:14:56.946Z,98377.26
2019-03-06T15:17:26.438Z,98378.13
2019-03-06T15:19:56.020Z,98375.09
2019-03-06T15:22:25.249Z,98376.05
2019-03-06T15:24:55.043Z,98378.27
2019-03-06T15:27:24.703Z,98370.29
2019-03-06T15:29:54.342Z,98375.99
2019-03-06T15:32:24.092Z,98378.27
2019-03-06T15:34:53.702Z,98376.06
2019-03-06T15:37:43.590Z,98367.47
2019-03-06T15:43:13.748Z,98358.62
2019-03-06T15:45:43.016Z,98357.27
2019-03-06T15:48:12.377Z,98356.68
2019-03-06T15:50:41.737Z,98356.61
2019-03-06T15:53:31.001Z,98349.81
2019-03-06T15:56:00.335Z,98351.40
2019-03-06T15:58:30.034Z,98349.78
2019-03-06T16:00:59.495Z,98344.47
2019-03-06T16:03:28.771Z,98348.94
2019-03-06T16:05:58.045Z,98340.80
2019-03-06T16:08:48.554Z,98338.82
2019-03-06T16:11:19.737Z,98344.75
2019-03-06T16:13:49.230Z,98326.97
2019-03-06T16:16:18.461Z,98331.70
2019-03-06T16:18:48.222Z,98324.56
2019-03-06T16:21:17.456Z,98321.49
2019-03-06T16:23:47.128Z,98320.03
2019-03-06T16:26:16.382Z,98320.55
2019-03-06T16:28:45.640Z,98308.56
2019-03-06T16:34:10.684Z,98308.95
2019-03-06T16:36:41.488Z,98314.63
2019-03-06T16:39:11.123Z,98313.55
2019-03-06T16:41:41.056Z,98315.23
2019-03-06T16:44:10.761Z,98304.81
2019-03-06T17:06:18.225Z,98294.17
2019-03-06T17:09:08.199Z,98289.66
2019-03-06T17:11:57.588Z,98288.13
2019-03-06T17:14:45.891Z,98278.23
2019-03-06T17:17:15.472Z,98271.08
2019-03-06T17:19:45.128Z,98258.91
2019-03-06T17:22:14.552Z,98261.93
2019-03-06T17:24:43.925Z,98261.89
2019-03-06T17:27:14.199Z,98249.00
2019-03-06T17:29:44.730Z,98249.12
2019-03-06T17:32:14.149Z,98242.64
2019-03-06T17:34:44.292Z,98239.12
2019-03-06T17:37:14.304Z,98232.18
2019-03-06T17:40:03.898Z,98230.22
2019-03-06T17:42:52.341Z,98227.98
2019-03-06T17:45:21.686Z,98213.43
2019-03-06T17:47:51.020Z,98207.30
2019-03-06T17:50:20.844Z,98199.20
2019-03-06T17:52:50.687Z,98192.80
2019-03-06T17:55:39.509Z,98191.38
2019-03-06T17:58:08.955Z,98194.59
2019-03-06T18:09:12.712Z,98149.34
2019-03-06T18:11:42.829Z,98135.14
2019-03-06T18:14:15.048Z,98135.11
2019-03-06T18:16:44.991Z,98137.77
2019-03-06T18:19:20.710Z,98133.70
2019-03-06T18:21:50.630Z,98129.71
2019-03-06T18:24:20.640Z,98132.16
2019-03-06T18:26:51.194Z,98133.41
2019-03-06T18:29:20.968Z,98129.22
2019-03-06T18:37:55.439Z,98115.39
2019-03-06T18:43:38.894Z,98101.33
2019-03-06T18:46:08.425Z,98086.66
2019-03-06T18:48:37.721Z,98087.52
2019-03-06T18:51:07.477Z,98091.34
2019-03-06T18:53:36.937Z,98087.27
2019-03-06T18:56:06.186Z,98086.02
2019-03-06T18:58:35.464Z,98093.55
2019-03-06T19:01:04.676Z,98088.36
2019-03-06T19:03:34.150Z,98097.75
2019-03-06T19:06:03.495Z,98098.13
2019-03-06T19:08:33.093Z,98091.66
2019-03-06T19:11:02.639Z,98091.71
2019-03-06T19:13:32.130Z,98084.44
2019-03-06T19:16:02.189Z,98093.24
2019-03-06T19:18:31.463Z,98083.69
2019-03-06T19:21:00.965Z,98077.45
2019-03-06T19:23:31.446Z,98077.33
2019-03-06T19:26:01.168Z,98076.52
2019-03-06T19:28:30.432Z,98073.81
2019-03-06T19:30:59.843Z,98073.92
2019-03-06T19:33:29.681Z,98068.16
2019-03-06T19:36:00.213Z,98064.86
2019-03-06T19:38:29.973Z,98063.83
2019-03-06T19:41:18.301Z,98059.14
2019-03-06T19:52:03.913Z,98048.41
2019-03-06T19:54:33.475Z,98049.77
2019-03-06T19:57:02.890Z,98057.30
2019-03-06T19:59:32.504Z,98046.62
2019-03-06T20:02:02.124Z,98047.92
2019-03-06T20:04:36.096Z,98041.52
2019-03-06T20:15:53.356Z,98016.16
2019-03-06T20:18:41.608Z,98011.25
2019-03-06T20:21:12.612Z,98008.96
2019-03-06T20:23:42.084Z,97997.37
2019-03-06T20:26:15.996Z,97993.14
2019-03-06T20:28:46.366Z,97986.52
2019-03-06T20:31:16.736Z,97990.17
2019-03-06T20:33:47.091Z,97983.17
2019-03-06T20:36:16.622Z,97982.48
2019-03-06T20:44:36.628Z,97979.13
2019-03-06T20:47:06.125Z,97980.73
2019-03-06T20:49:35.505Z,97985.00
2019-03-06T21:00:44.096Z,97982.28
2019-03-06T21:08:47.537Z,97983.11
2019-03-06T21:41:18.971Z,97948.69
2019-03-06T21:43:50.542Z,97953.43
2019-03-06T21:46:20.905Z,97951.44
2019-03-06T21:48:50.745Z,97950.63
2019-03-06T21:51:20.205Z,97942.13
2019-03-06T21:53:51.649Z,97943.67
2019-03-06T21:59:12.348Z,97940.41
2019-03-06T22:01:41.728Z,97947.94
2019-03-06T22:04:11.493Z,97938.44
2019-03-06T22:06:42.593Z,97943.35
2019-03-06T22:09:14.334Z,97938.80
2019-03-06T22:11:43.745Z,97932.69
2019-03-06T22:14:33.141Z,97923.91
2019-03-06T22:17:02.619Z,97926.68
2019-03-06T22:19:31.889Z,97921.73
2019-03-06T22:22:01.375Z,97922.28
2019-03-06T22:24:30.716Z,97918.80
2019-03-06T22:27:00.850Z,97912.98
2019-03-06T22:29:31.524Z,97914.63
2019-03-06T22:32:00.999Z,97908.58
2019-03-06T22:34:31.009Z,97908.09
2019-03-06T22:37:00.570Z,97908.23
2019-03-06T22:44:46.355Z,97901.80
2019-03-06T22:47:35.301Z,97893.74
2019-03-06T22:50:10.096Z,97885.92
2019-03-06T22:52:42.919Z,97888.22
2019-03-06T22:55:15.329Z,97880.70
2019-03-06T22:57:44.592Z,97874.02
2019-03-06T23:03:16.090Z,97874.17
2019-03-06T23:05:45.536Z,97871.47
2019-03-06T23:08:34.071Z,97867.80
2019-03-06T23:11:03.494Z,97865.70
2019-03-06T23:13:33.402Z,97856.59
2019-03-06T23:16:02.994Z,97857.14
2019-03-06T23:18:33.422Z,97850.69
2019-03-06T23:21:03.853Z,97837.92
2019-03-06T23:23:33.225Z,97833.04
2019-03-06T23:26:06.899Z,97831.06
2019-03-06T23:28:36.645Z,97829.91
2019-03-06T23:31:06.486Z,97824.07
2019-03-06T23:33:41.749Z,97814.18
2019-03-06T23:36:18.976Z,97803.63
2019-03-06T23:41:38.145Z,97798.48
2019-03-06T23:44:11.530Z,97791.69
2019-03-06T23:46:43.963Z,97782.48
2019-03-06T23:49:13.918Z,97792.31
2019-03-06T23:52:03.033Z,97780.64
2019-03-06T23:54:35.383Z,97767.16
2019-03-06T23:57:05.319Z,97755.73
2019-03-06T23:59:35.918Z,97756.77
